sensor_id;sensor_type;location;lat;lon;timestamp;pressure;altitude;pressure_sealevel;temperature;humidity
10921;BME280;5513;50.580;8.818;2024-03-08T00:01:11;99278.50;;;3.28;100.00
10921;BME280;5513;50.580;8.818;2024-03-08T00:03:58;99279.72;;;3.17;100.00
10921;BME280;5513;50.580;8.818;2024-03-08T00:06:45;99278.91;;;3.15;100.00
10921;BME280;5513;50.580;8.818;2024-03-08T00:09:33;99279.13;;;3.36;100.00
10921;BME280;5513;50.580;8.818;2024-03-08T00:12:19;99273.19;;;3.31;100.00
10921;BME280;5513;50.580;8.818;2024-03-08T00:15:08;99265.78;;;3.17;100.00
10921;BME280;5513;50.580;8.818;2024-03-08T00:17:56;99274.78;;;3.35;100.00
10921;BME280;5513;50.580;8.818;2024-03-08T00:20:43;99275.16;;;3.51;100.00
10921;BME280;5513;50.580;8.818;2024-03-08T00:23:30;99274.84;;;3.60;100.00
10921;BME280;5513;50.580;8.818;2024-03-08T00:26:18;99268.34;;;3.45;100.00
10921;BME280;5513;50.580;8.818;2024-03-08T00:29:05;99267.47;;;3.20;100.00
10921;BME280;5513;50.580;8.818;2024-03-08T00:31:54;99277.78;;;3.24;100.00
10921;BME280;5513;50.580;8.818;2024-03-08T00:34:41;99270.16;;;3.16;100.00
10921;BME280;5513;50.580;8.818;2024-03-08T00:37:28;99277.09;;;2.91;100.00
10921;BME280;5513;50.580;8.818;2024-03-08T00:40:15;99271.06;;;3.15;100.00
10921;BME280;5513;50.580;8.818;2024-03-08T00:43:02;99260.25;;;3.00;100.00
10921;BME280;5513;50.580;8.818;2024-03-08T00:45:49;99255.78;;;3.03;100.00
10921;BME280;5513;50.580;8.818;2024-03-08T00:48:38;99259.69;;;2.90;100.00
10921;BME280;5513;50.580;8.818;2024-03-08T00:51:29;99261.94;;;3.27;100.00
10921;BME280;5513;50.580;8.818;2024-03-08T00:54:16;99261.25;;;3.22;100.00
10921;BME280;5513;50.580;8.818;2024-03-08T00:57:02;99259.34;;;3.27;100.00
10921;BME280;5513;50.580;8.818;2024-03-08T00:59:50;99256.38;;;3.11;100.00
10921;BME280;5513;50.580;8.818;2024-03-08T01:02:38;99253.06;;;2.78;100.00
10921;BME280;5513;50.580;8.818;2024-03-08T01:05:26;99248.63;;;2.52;100.00
10921;BME280;5513;50.580;8.818;2024-03-08T01:08:13;99244.22;;;2.82;100.00
10921;BME280;5513;50.580;8.818;2024-03-08T01:11:00;99237.75;;;2.66;100.00
10921;BME280;5513;50.580;8.818;2024-03-08T01:13:47;99238.50;;;2.42;100.00
10921;BME280;5513;50.580;8.818;2024-03-08T01:16:34;99234.56;;;2.84;100.00
10921;BME280;5513;50.580;8.818;2024-03-08T01:19:21;99240.13;;;2.46;100.00
10921;BME280;5513;50.580;8.818;2024-03-08T01:22:10;99222.91;;;2.67;100.00
10921;BME280;5513;50.580;8.818;2024-03-08T01:24:57;99222.00;;;2.96;100.00
10921;BME280;5513;50.580;8.818;2024-03-08T01:27:44;99228.19;;;2.65;100.00
10921;BME280;5513;50.580;8.818;2024-03-08T01:30:31;99215.63;;;2.48;100.00
10921;BME280;5513;50.580;8.818;2024-03-08T01:33:19;99207.34;;;2.64;100.00
10921;BME280;5513;50.580;8.818;2024-03-08T01:36:08;99201.06;;;2.96;100.00
10921;BME280;5513;50.580;8.818;2024-03-08T01:38:56;99203.28;;;2.81;100.00
10921;BME280;5513;50.580;8.818;2024-03-08T01:41:43;99194.88;;;2.72;100.00
10921;BME280;5513;50.580;8.818;2024-03-08T01:44:30;99191.34;;;2.73;100.00
10921;BME280;5513;50.580;8.818;2024-03-08T01:47:17;99190.44;;;2.74;100.00
10921;BME280;5513;50.580;8.818;2024-03-08T01:50:06;99182.50;;;2.49;100.00
10921;BME280;5513;50.580;8.818;2024-03-08T01:52:53;99178.56;;;2.36;100.00
10921;BME280;5513;50.580;8.818;2024-03-08T01:55:48;99190.16;;;2.55;100.00
10921;BME280;5513;50.580;8.818;2024-03-08T01:58:35;99178.47;;;2.67;100.00
10921;BME280;5513;50.580;8.818;2024-03-08T02:01:22;99175.06;;;2.65;100.00
10921;BME280;5513;50.580;8.818;2024-03-08T02:04:09;99168.69;;;2.45;100.00
10921;BME280;5513;50.580;8.818;2024-03-08T02:06:56;99173.06;;;2.45;100.00
10921;BME280;5513;50.580;8.818;2024-03-08T02:09:44;99161.34;;;2.28;100.00
10921;BME280;5513;50.580;8.818;2024-03-08T02:12:32;99161.50;;;2.24;100.00
10921;BME280;5513;50.580;8.818;2024-03-08T02:15:19;99160.81;;;2.17;100.00
10921;BME280;5513;50.580;8.818;2024-03-08T02:18:07;99158.59;;;2.05;100.00
10921;BME280;5513;50.580;8.818;2024-03-08T02:20:55;99149.84;;;2.06;100.00
10921;BME280;5513;50.580;8.818;2024-03-08T02:23:42;99152.56;;;2.03;100.00
10921;BME280;5513;50.580;8.818;2024-03-08T02:26:29;99148.91;;;2.09;100.00
10921;BME280;5513;50.580;8.818;2024-03-08T02:29:17;99139.31;;;2.09;100.00
10921;BME280;5513;50.580;8.818;2024-03-08T02:32:04;99147.81;;;2.16;100.00
10921;BME280;5513;50.580;8.818;2024-03-08T02:34:56;99142.38;;;2.22;100.00
10921;BME280;5513;50.580;8.818;2024-03-08T02:37:47;99141.97;;;2.36;100.00
10921;BME280;5513;50.580;8.818;2024-03-08T02:40:34;99131.66;;;2.31;100.00
10921;BME280;5513;50.580;8.818;2024-03-08T02:43:21;99135.72;;;2.12;100.00
10921;BME280;5513;50.580;8.818;2024-03-08T02:46:10;99129.25;;;2.25;100.00
10921;BME280;5513;50.580;8.818;2024-03-08T02:48:57;99133.84;;;2.45;100.00
10921;BME280;5513;50.580;8.818;2024-03-08T02:51:44;99126.06;;;2.15;100.00
10921;BME280;5513;50.580;8.818;2024-03-08T02:54:32;99115.28;;;2.26;100.00
10921;BME280;5513;50.580;8.818;2024-03-08T02:57:20;99124.31;;;2.16;100.00
10921;BME280;5513;50.580;8.818;2024-03-08T03:00:08;99119.75;;;2.22;100.00
10921;BME280;5513;50.580;8.818;2024-03-08T03:02:55;99125.38;;;2.09;100.00
10921;BME280;5513;50.580;8.818;2024-03-08T03:05:42;99117.97;;;1.95;100.00
10921;BME280;5513;50.580;8.818;2024-03-08T03:08:33;99122.66;;;2.13;100.00
10921;BME280;5513;50.580;8.818;2024-03-08T03:11:22;99121.44;;;1.95;100.00
10921;BME280;5513;50.580;8.818;2024-03-08T03:14:09;99118.19;;;1.87;100.00
10921;BME280;5513;50.580;8.818;2024-03-08T03:16:55;99113.16;;;1.81;100.00
10921;BME280;5513;50.580;8.818;2024-03-08T03:19:42;99115.38;;;2.23;100.00
10921;BME280;5513;50.580;8.818;2024-03-08T03:22:29;99111.63;;;2.04;100.00
10921;BME280;5513;50.580;8.818;2024-03-08T03:25:17;99109.59;;;1.84;100.00
10921;BME280;5513;50.580;8.818;2024-03-08T03:28:10;99111.34;;;1.83;100.00
10921;BME280;5513;50.580;8.818;2024-03-08T03:31:00;99112.13;;;1.87;100.00
10921;BME280;5513;50.580;8.818;2024-03-08T03:33:47;99108.13;;;1.75;100.00
10921;BME280;5513;50.580;8.818;2024-03-08T03:36:37;99109.69;;;1.81;100.00
10921;BME280;5513;50.580;8.818;2024-03-08T03:39:28;99106.16;;;1.82;100.00
10921;BME280;5513;50.580;8.818;2024-03-08T03:42:17;99110.03;;;1.98;100.00
10921;BME280;5513;50.580;8.818;2024-03-08T03:45:06;99105.34;;;1.80;100.00
10921;BME280;5513;50.580;8.818;2024-03-08T03:47:53;99106.44;;;1.72;100.00
10921;BME280;5513;50.580;8.818;2024-03-08T03:50:40;99106.41;;;1.74;100.00
10921;BME280;5513;50.580;8.818;2024-03-08T03:53:27;99116.56;;;1.83;100.00
10921;BME280;5513;50.580;8.818;2024-03-08T03:56:14;99104.59;;;2.06;100.00
10921;BME280;5513;50.580;8.818;2024-03-08T03:59:01;99102.34;;;2.21;100.00
10921;BME280;5513;50.580;8.818;2024-03-08T04:01:49;99098.00;;;1.92;100.00
10921;BME280;5513;50.580;8.818;2024-03-08T04:04:36;99102.47;;;1.89;100.00
10921;BME280;5513;50.580;8.818;2024-03-08T04:07:23;99096.19;;;1.96;100.00
10921;BME280;5513;50.580;8.818;2024-03-08T04:10:11;99097.47;;;1.81;100.00
10921;BME280;5513;50.580;8.818;2024-03-08T04:12:58;99093.97;;;1.82;100.00
10921;BME280;5513;50.580;8.818;2024-03-08T04:15:45;99092.78;;;1.92;100.00
10921;BME280;5513;50.580;8.818;2024-03-08T04:18:35;99089.47;;;1.87;100.00
10921;BME280;5513;50.580;8.818;2024-03-08T04:21:23;99083.94;;;1.68;100.00
10921;BME280;5513;50.580;8.818;2024-03-08T04:24:10;99083.72;;;1.76;100.00
10921;BME280;5513;50.580;8.818;2024-03-08T04:26:57;99085.41;;;2.07;100.00
10921;BME280;5513;50.580;8.818;2024-03-08T04:29:44;99085.72;;;1.96;100.00
10921;BME280;5513;50.580;8.818;2024-03-08T04:32:31;99084.25;;;1.87;100.00
10921;BME280;5513;50.580;8.818;2024-03-08T04:35:20;99082.97;;;1.71;100.00
10921;BME280;5513;50.580;8.818;2024-03-08T04:38:07;99078.75;;;1.67;100.00
10921;BME280;5513;50.580;8.818;2024-03-08T04:40:54;99078.44;;;1.48;100.00
10921;BME280;5513;50.580;8.818;2024-03-08T04:43:41;99078.81;;;1.95;100.00
10921;BME280;5513;50.580;8.818;2024-03-08T04:46:28;99082.81;;;1.77;100.00
10921;BME280;5513;50.580;8.818;2024-03-08T04:49:15;99070.50;;;1.81;100.00
10921;BME280;5513;50.580;8.818;2024-03-08T04:52:04;99076.59;;;1.81;100.00
10921;BME280;5513;50.580;8.818;2024-03-08T04:54:52;99073.97;;;1.81;100.00
10921;BME280;5513;50.580;8.818;2024-03-08T04:57:39;99073.41;;;1.99;100.00
10921;BME280;5513;50.580;8.818;2024-03-08T05:00:27;99066.66;;;1.94;100.00
10921;BME280;5513;50.580;8.818;2024-03-08T05:03:14;99071.03;;;1.93;100.00
10921;BME280;5513;50.580;8.818;2024-03-08T05:06:01;99070.78;;;1.71;100.00
10921;BME280;5513;50.580;8.818;2024-03-08T05:08:49;99072.31;;;1.49;100.00
10921;BME280;5513;50.580;8.818;2024-03-08T05:11:36;99065.78;;;1.64;100.00
10921;BME280;5513;50.580;8.818;2024-03-08T05:14:23;99068.63;;;1.86;100.00
10921;BME280;5513;50.580;8.818;2024-03-08T05:17:10;99070.25;;;1.60;100.00
10921;BME280;5513;50.580;8.818;2024-03-08T05:19:57;99069.56;;;1.83;100.00
10921;BME280;5513;50.580;8.818;2024-03-08T05:22:44;99065.75;;;1.65;100.00
10921;BME280;5513;50.580;8.818;2024-03-08T05:25:33;99063.75;;;2.03;100.00
10921;BME280;5513;50.580;8.818;2024-03-08T05:28:20;99062.47;;;2.43;100.00
10921;BME280;5513;50.580;8.818;2024-03-08T05:31:07;99063.50;;;2.11;100.00
10921;BME280;5513;50.580;8.818;2024-03-08T05:33:53;99066.31;;;2.05;100.00
10921;BME280;5513;50.580;8.818;2024-03-08T05:36:41;99072.66;;;2.50;100.00
10921;BME280;5513;50.580;8.818;2024-03-08T05:39:30;99061.66;;;2.41;100.00
10921;BME280;5513;50.580;8.818;2024-03-08T05:42:18;99059.41;;;2.02;100.00
10921;BME280;5513;50.580;8.818;2024-03-08T05:45:05;99055.53;;;1.87;100.00
10921;BME280;5513;50.580;8.818;2024-03-08T05:47:52;99051.16;;;1.88;100.00
10921;BME280;5513;50.580;8.818;2024-03-08T05:50:39;99054.00;;;1.80;100.00
10921;BME280;5513;50.580;8.818;2024-03-08T05:53:26;99058.19;;;1.86;100.00
10921;BME280;5513;50.580;8.818;2024-03-08T05:56:13;99053.59;;;1.92;100.00
10921;BME280;5513;50.580;8.818;2024-03-08T05:59:01;99054.72;;;1.85;100.00
10921;BME280;5513;50.580;8.818;2024-03-08T06:01:48;99057.53;;;2.07;100.00
10921;BME280;5513;50.580;8.818;2024-03-08T06:04:35;99059.91;;;1.87;100.00
10921;BME280;5513;50.580;8.818;2024-03-08T06:07:23;99062.19;;;1.68;100.00
10921;BME280;5513;50.580;8.818;2024-03-08T06:10:11;99057.06;;;1.93;100.00
10921;BME280;5513;50.580;8.818;2024-03-08T06:12:58;99055.22;;;1.68;100.00
10921;BME280;5513;50.580;8.818;2024-03-08T06:15:47;99054.22;;;1.72;100.00
10921;BME280;5513;50.580;8.818;2024-03-08T06:18:33;99057.91;;;1.95;100.00
10921;BME280;5513;50.580;8.818;2024-03-08T06:21:21;99055.75;;;2.36;100.00
10921;BME280;5513;50.580;8.818;2024-03-08T06:24:08;99058.69;;;2.25;100.00
10921;BME280;5513;50.580;8.818;2024-03-08T06:26:55;99053.88;;;2.39;100.00
10921;BME280;5513;50.580;8.818;2024-03-08T06:29:42;99052.63;;;2.24;100.00
10921;BME280;5513;50.580;8.818;2024-03-08T06:32:31;99052.22;;;2.37;100.00
10921;BME280;5513;50.580;8.818;2024-03-08T06:35:21;99053.38;;;2.54;100.00
10921;BME280;5513;50.580;8.818;2024-03-08T06:38:08;99055.28;;;2.49;100.00
10921;BME280;5513;50.580;8.818;2024-03-08T06:40:55;99053.06;;;2.64;100.00
10921;BME280;5513;50.580;8.818;2024-03-08T06:43:42;99050.09;;;2.48;100.00
10921;BME280;5513;50.580;8.818;2024-03-08T06:46:29;99053.25;;;2.84;100.00
10921;BME280;5513;50.580;8.818;2024-03-08T06:49:17;99052.41;;;2.83;100.00
10921;BME280;5513;50.580;8.818;2024-03-08T06:52:05;99058.47;;;2.84;100.00
10921;BME280;5513;50.580;8.818;2024-03-08T06:54:54;99049.97;;;2.77;100.00
10921;BME280;5513;50.580;8.818;2024-03-08T06:57:42;99047.63;;;2.95;100.00
10921;BME280;5513;50.580;8.818;2024-03-08T07:00:29;99051.22;;;2.92;100.00
10921;BME280;5513;50.580;8.818;2024-03-08T07:03:16;99045.50;;;3.06;100.00
10921;BME280;5513;50.580;8.818;2024-03-08T07:06:04;99054.09;;;3.09;100.00
10921;BME280;5513;50.580;8.818;2024-03-08T07:08:53;99046.41;;;3.30;100.00
10921;BME280;5513;50.580;8.818;2024-03-08T07:11:40;99048.09;;;3.54;100.00
10921;BME280;5513;50.580;8.818;2024-03-08T07:14:30;99048.72;;;3.61;100.00
10921;BME280;5513;50.580;8.818;2024-03-08T07:17:17;99044.88;;;3.48;100.00
10921;BME280;5513;50.580;8.818;2024-03-08T07:20:05;99051.56;;;3.55;100.00
10921;BME280;5513;50.580;8.818;2024-03-08T07:22:54;99042.56;;;3.62;100.00
10921;BME280;5513;50.580;8.818;2024-03-08T07:25:41;99036.63;;;3.58;100.00
10921;BME280;5513;50.580;8.818;2024-03-08T07:28:28;99040.47;;;3.93;100.00
10921;BME280;5513;50.580;8.818;2024-03-08T07:31:16;99032.63;;;3.93;100.00
10921;BME280;5513;50.580;8.818;2024-03-08T07:34:17;99031.97;;;3.88;100.00
10921;BME280;5513;50.580;8.818;2024-03-08T07:37:04;99031.41;;;4.02;100.00
10921;BME280;5513;50.580;8.818;2024-03-08T07:39:53;99027.78;;;4.48;100.00
10921;BME280;5513;50.580;8.818;2024-03-08T07:42:40;99031.72;;;4.58;100.00
10921;BME280;5513;50.580;8.818;2024-03-08T07:45:27;99027.56;;;4.75;100.00
10921;BME280;5513;50.580;8.818;2024-03-08T07:48:14;99015.53;;;4.89;100.00
10921;BME280;5513;50.580;8.818;2024-03-08T07:51:02;99016.78;;;5.22;100.00
10921;BME280;5513;50.580;8.818;2024-03-08T07:53:49;99007.84;;;5.05;100.00
10921;BME280;5513;50.580;8.818;2024-03-08T07:56:37;99006.72;;;5.31;100.00
10921;BME280;5513;50.580;8.818;2024-03-08T07:59:24;98994.63;;;5.46;98.56
10921;BME280;5513;50.580;8.818;2024-03-08T08:02:11;99002.78;;;5.78;94.44
10921;BME280;5513;50.580;8.818;2024-03-08T08:04:58;99002.09;;;5.74;93.99
10921;BME280;5513;50.580;8.818;2024-03-08T08:07:45;98998.63;;;5.92;92.77
10921;BME280;5513;50.580;8.818;2024-03-08T08:10:36;98988.53;;;6.02;91.49
10921;BME280;5513;50.580;8.818;2024-03-08T08:13:25;98985.03;;;6.38;89.05
10921;BME280;5513;50.580;8.818;2024-03-08T08:16:13;98978.22;;;6.51;86.43
10921;BME280;5513;50.580;8.818;2024-03-08T08:19:00;98977.22;;;6.53;84.03
10921;BME280;5513;50.580;8.818;2024-03-08T08:21:47;98973.44;;;6.59;82.61
10921;BME280;5513;50.580;8.818;2024-03-08T08:24:34;98970.25;;;6.70;82.41
10921;BME280;5513;50.580;8.818;2024-03-08T08:27:22;98975.59;;;6.68;81.57
10921;BME280;5513;50.580;8.818;2024-03-08T08:30:13;98969.78;;;6.79;79.56
10921;BME280;5513;50.580;8.818;2024-03-08T08:33:00;98958.78;;;6.88;79.16
10921;BME280;5513;50.580;8.818;2024-03-08T08:35:47;98947.75;;;6.97;78.80
10921;BME280;5513;50.580;8.818;2024-03-08T08:38:37;98948.34;;;7.02;79.28
10921;BME280;5513;50.580;8.818;2024-03-08T08:41:24;98935.91;;;7.06;78.52
10921;BME280;5513;50.580;8.818;2024-03-08T08:44:11;98943.88;;;7.20;75.95
10921;BME280;5513;50.580;8.818;2024-03-08T08:47:02;98926.31;;;7.68;73.25
10921;BME280;5513;50.580;8.818;2024-03-08T08:49:59;98930.81;;;7.97;73.06
10921;BME280;5513;50.580;8.818;2024-03-08T08:52:46;98925.19;;;7.88;71.33
10921;BME280;5513;50.580;8.818;2024-03-08T08:55:33;98926.63;;;8.39;68.54
10921;BME280;5513;50.580;8.818;2024-03-08T08:58:21;98927.94;;;8.32;67.75
10921;BME280;5513;50.580;8.818;2024-03-08T09:01:08;98918.81;;;8.38;67.93
10921;BME280;5513;50.580;8.818;2024-03-08T09:03:57;98911.50;;;8.43;66.51
10921;BME280;5513;50.580;8.818;2024-03-08T09:06:43;98906.56;;;9.09;65.34
10921;BME280;5513;50.580;8.818;2024-03-08T09:09:31;98906.09;;;9.17;64.76
10921;BME280;5513;50.580;8.818;2024-03-08T09:12:18;98910.31;;;9.05;63.46
10921;BME280;5513;50.580;8.818;2024-03-08T09:15:06;98894.88;;;8.99;63.08
10921;BME280;5513;50.580;8.818;2024-03-08T09:17:56;98892.06;;;9.43;62.91
10921;BME280;5513;50.580;8.818;2024-03-08T09:20:46;98884.75;;;9.61;63.04
10921;BME280;5513;50.580;8.818;2024-03-08T09:23:33;98880.97;;;9.65;61.39
10921;BME280;5513;50.580;8.818;2024-03-08T09:26:21;98876.72;;;9.63;61.20
10921;BME280;5513;50.580;8.818;2024-03-08T09:29:14;98861.25;;;9.84;60.67
10921;BME280;5513;50.580;8.818;2024-03-08T09:32:02;98857.59;;;10.39;58.38
10921;BME280;5513;50.580;8.818;2024-03-08T09:34:50;98851.47;;;10.76;57.50
10921;BME280;5513;50.580;8.818;2024-03-08T09:37:39;98836.94;;;10.95;56.48
10921;BME280;5513;50.580;8.818;2024-03-08T09:40:26;98825.69;;;11.40;56.10
10921;BME280;5513;50.580;8.818;2024-03-08T09:43:13;98828.84;;;11.45;56.57
10921;BME280;5513;50.580;8.818;2024-03-08T09:46:00;98810.56;;;11.54;53.89
10921;BME280;5513;50.580;8.818;2024-03-08T09:48:49;98803.41;;;12.26;53.53
10921;BME280;5513;50.580;8.818;2024-03-08T09:51:36;98806.84;;;12.15;52.22
10921;BME280;5513;50.580;8.818;2024-03-08T09:54:27;98801.22;;;12.31;51.48
10921;BME280;5513;50.580;8.818;2024-03-08T09:57:15;98795.34;;;12.03;52.40
10921;BME280;5513;50.580;8.818;2024-03-08T10:00:06;98782.66;;;12.87;51.74
10921;BME280;5513;50.580;8.818;2024-03-08T10:03:04;98768.44;;;13.74;49.38
10921;BME280;5513;50.580;8.818;2024-03-08T10:05:51;98751.31;;;14.51;46.07
10921;BME280;5513;50.580;8.818;2024-03-08T10:08:39;98748.38;;;14.33;47.05
10921;BME280;5513;50.580;8.818;2024-03-08T10:11:30;98727.97;;;16.01;44.40
10921;BME280;5513;50.580;8.818;2024-03-08T10:14:16;98718.63;;;18.15;40.11
10921;BME280;5513;50.580;8.818;2024-03-08T10:17:03;98707.34;;;18.12;38.31
10921;BME280;5513;50.580;8.818;2024-03-08T10:19:51;98701.25;;;18.62;37.38
10921;BME280;5513;50.580;8.818;2024-03-08T10:22:39;98688.69;;;18.96;37.49
10921;BME280;5513;50.580;8.818;2024-03-08T10:25:43;98686.44;;;20.40;34.87
10921;BME280;5513;50.580;8.818;2024-03-08T10:28:31;98669.69;;;18.47;33.98
10921;BME280;5513;50.580;8.818;2024-03-08T10:31:18;98671.06;;;20.65;33.20
10921;BME280;5513;50.580;8.818;2024-03-08T10:34:06;98665.75;;;20.88;32.32
10921;BME280;5513;50.580;8.818;2024-03-08T10:36:53;98655.09;;;20.63;31.21
10921;BME280;5513;50.580;8.818;2024-03-08T10:39:42;98645.75;;;22.19;31.22
10921;BME280;5513;50.580;8.818;2024-03-08T10:42:34;98643.69;;;22.66;30.82
10921;BME280;5513;50.580;8.818;2024-03-08T10:45:31;98626.78;;;24.56;28.10
10921;BME280;5513;50.580;8.818;2024-03-08T10:48:29;98637.38;;;22.44;30.16
10921;BME280;5513;50.580;8.818;2024-03-08T10:51:24;98622.91;;;22.96;28.53
10921;BME280;5513;50.580;8.818;2024-03-08T10:54:14;98622.72;;;22.97;28.96
10921;BME280;5513;50.580;8.818;2024-03-08T10:57:03;98631.53;;;21.88;29.42
10921;BME280;5513;50.580;8.818;2024-03-08T10:59:53;98619.59;;;24.35;27.37
10921;BME280;5513;50.580;8.818;2024-03-08T11:02:45;98614.56;;;23.33;28.44
10921;BME280;5513;50.580;8.818;2024-03-08T11:05:37;98612.81;;;22.09;29.11
10921;BME280;5513;50.580;8.818;2024-03-08T11:08:30;98615.84;;;23.16;28.33
10921;BME280;5513;50.580;8.818;2024-03-08T11:11:25;98606.19;;;23.64;28.29
10921;BME280;5513;50.580;8.818;2024-03-08T11:14:43;98594.97;;;24.02;27.09
10921;BME280;5513;50.580;8.818;2024-03-08T11:17:45;98595.75;;;23.89;27.45
10921;BME280;5513;50.580;8.818;2024-03-08T11:20:33;98593.44;;;23.86;28.01
10921;BME280;5513;50.580;8.818;2024-03-08T11:23:22;98567.81;;;24.51;26.02
10921;BME280;5513;50.580;8.818;2024-03-08T11:26:24;98569.41;;;24.05;26.68
10921;BME280;5513;50.580;8.818;2024-03-08T11:29:33;98565.72;;;23.35;27.11
10921;BME280;5513;50.580;8.818;2024-03-08T11:32:21;98571.94;;;23.78;27.23
10921;BME280;5513;50.580;8.818;2024-03-08T11:35:18;98553.88;;;25.88;25.18
10921;BME280;5513;50.580;8.818;2024-03-08T11:38:07;98567.53;;;24.40;26.83
10921;BME280;5513;50.580;8.818;2024-03-08T11:40:56;98570.84;;;23.51;27.89
10921;BME280;5513;50.580;8.818;2024-03-08T11:43:43;98569.81;;;21.93;29.10
10921;BME280;5513;50.580;8.818;2024-03-08T11:46:31;98560.63;;;23.68;27.09
10921;BME280;5513;50.580;8.818;2024-03-08T11:49:17;98558.41;;;23.78;27.26
10921;BME280;5513;50.580;8.818;2024-03-08T11:52:04;98559.75;;;23.39;27.86
10921;BME280;5513;50.580;8.818;2024-03-08T11:54:54;98549.28;;;23.08;28.32
10921;BME280;5513;50.580;8.818;2024-03-08T11:57:43;98545.25;;;24.38;27.28
10921;BME280;5513;50.580;8.818;2024-03-08T12:00:30;98529.47;;;25.68;26.38
10921;BME280;5513;50.580;8.818;2024-03-08T12:03:23;98517.63;;;26.79;24.86
10921;BME280;5513;50.580;8.818;2024-03-08T12:06:10;98519.31;;;26.29;24.54
10921;BME280;5513;50.580;8.818;2024-03-08T12:08:58;98506.16;;;26.77;23.39
10921;BME280;5513;50.580;8.818;2024-03-08T12:11:48;98517.13;;;25.92;23.84
10921;BME280;5513;50.580;8.818;2024-03-08T12:14:36;98507.69;;;26.66;23.28
10921;BME280;5513;50.580;8.818;2024-03-08T12:17:23;98502.19;;;27.11;23.37
10921;BME280;5513;50.580;8.818;2024-03-08T12:20:15;98492.16;;;27.61;22.33
10921;BME280;5513;50.580;8.818;2024-03-08T12:23:02;98497.44;;;27.00;23.17
10921;BME280;5513;50.580;8.818;2024-03-08T12:25:50;98503.25;;;26.72;23.56
10921;BME280;5513;50.580;8.818;2024-03-08T12:28:39;98488.41;;;26.74;22.94
10921;BME280;5513;50.580;8.818;2024-03-08T12:31:26;98486.91;;;26.78;23.79
10921;BME280;5513;50.580;8.818;2024-03-08T12:34:14;98485.88;;;26.73;23.53
10921;BME280;5513;50.580;8.818;2024-03-08T12:37:01;98483.06;;;26.03;23.70
10921;BME280;5513;50.580;8.818;2024-03-08T12:39:48;98475.91;;;27.05;23.52
10921;BME280;5513;50.580;8.818;2024-03-08T12:42:35;98467.28;;;26.45;23.08
10921;BME280;5513;50.580;8.818;2024-03-08T12:45:25;98467.53;;;25.39;23.89
10921;BME280;5513;50.580;8.818;2024-03-08T12:48:12;98459.94;;;26.84;22.07
10921;BME280;5513;50.580;8.818;2024-03-08T12:51:00;98461.63;;;27.34;21.81
10921;BME280;5513;50.580;8.818;2024-03-08T12:53:48;98447.69;;;26.23;22.67
10921;BME280;5513;50.580;8.818;2024-03-08T12:56:41;98444.72;;;26.76;22.21
10921;BME280;5513;50.580;8.818;2024-03-08T12:59:28;98439.56;;;26.61;23.09
10921;BME280;5513;50.580;8.818;2024-03-08T13:02:16;98438.88;;;25.83;23.21
10921;BME280;5513;50.580;8.818;2024-03-08T13:05:03;98438.25;;;26.70;22.56
10921;BME280;5513;50.580;8.818;2024-03-08T13:07:51;98434.34;;;27.23;22.70
10921;BME280;5513;50.580;8.818;2024-03-08T13:10:39;98422.53;;;26.47;22.32
10921;BME280;5513;50.580;8.818;2024-03-08T13:13:29;98412.78;;;26.96;22.85
10921;BME280;5513;50.580;8.818;2024-03-08T13:16:16;98435.59;;;24.07;24.34
10921;BME280;5513;50.580;8.818;2024-03-08T13:19:06;98417.53;;;26.76;23.49
10921;BME280;5513;50.580;8.818;2024-03-08T13:21:52;98411.28;;;27.25;22.45
10921;BME280;5513;50.580;8.818;2024-03-08T13:24:39;98420.78;;;24.97;23.93
10921;BME280;5513;50.580;8.818;2024-03-08T13:27:27;98414.16;;;25.13;23.71
10921;BME280;5513;50.580;8.818;2024-03-08T13:30:14;98414.84;;;26.38;23.54
10921;BME280;5513;50.580;8.818;2024-03-08T13:33:04;98407.25;;;24.77;24.12
10921;BME280;5513;50.580;8.818;2024-03-08T13:35:54;98401.53;;;25.65;24.06
10921;BME280;5513;50.580;8.818;2024-03-08T13:38:49;98397.25;;;27.28;22.56
10921;BME280;5513;50.580;8.818;2024-03-08T13:41:36;98408.59;;;25.86;24.17
10921;BME280;5513;50.580;8.818;2024-03-08T13:44:25;98396.25;;;25.96;23.51
10921;BME280;5513;50.580;8.818;2024-03-08T13:47:13;98393.09;;;26.44;23.13
10921;BME280;5513;50.580;8.818;2024-03-08T13:50:00;98390.56;;;26.43;22.34
10921;BME280;5513;50.580;8.818;2024-03-08T13:52:49;98379.09;;;25.96;22.61
10921;BME280;5513;50.580;8.818;2024-03-08T13:55:39;98377.13;;;25.72;23.43
10921;BME280;5513;50.580;8.818;2024-03-08T13:58:26;98383.44;;;25.52;23.69
10921;BME280;5513;50.580;8.818;2024-03-08T14:01:13;98374.72;;;26.40;23.36
10921;BME280;5513;50.580;8.818;2024-03-08T14:04:00;98377.88;;;25.14;23.73
10921;BME280;5513;50.580;8.818;2024-03-08T14:06:47;98371.53;;;25.53;23.73
10921;BME280;5513;50.580;8.818;2024-03-08T14:09:36;98369.97;;;25.19;24.00
10921;BME280;5513;50.580;8.818;2024-03-08T14:12:28;98357.94;;;25.60;24.14
10921;BME280;5513;50.580;8.818;2024-03-08T14:15:15;98353.38;;;25.54;23.92
10921;BME280;5513;50.580;8.818;2024-03-08T14:18:02;98355.13;;;26.31;23.17
10921;BME280;5513;50.580;8.818;2024-03-08T14:20:52;98346.28;;;26.74;23.46
10921;BME280;5513;50.580;8.818;2024-03-08T14:23:41;98335.84;;;26.96;23.10
10921;BME280;5513;50.580;8.818;2024-03-08T14:26:29;98331.00;;;27.23;22.78
10921;BME280;5513;50.580;8.818;2024-03-08T14:29:16;98319.69;;;26.51;23.54
10921;BME280;5513;50.580;8.818;2024-03-08T14:32:03;98329.88;;;25.34;24.00
10921;BME280;5513;50.580;8.818;2024-03-08T14:34:52;98335.28;;;24.28;24.96
10921;BME280;5513;50.580;8.818;2024-03-08T14:37:40;98325.81;;;25.57;24.09
10921;BME280;5513;50.580;8.818;2024-03-08T14:40:28;98309.31;;;24.47;24.22
10921;BME280;5513;50.580;8.818;2024-03-08T14:43:17;98308.88;;;24.77;24.67
10921;BME280;5513;50.580;8.818;2024-03-08T14:46:05;98310.03;;;25.40;24.42
10921;BME280;5513;50.580;8.818;2024-03-08T14:48:53;98308.66;;;24.78;24.50
10921;BME280;5513;50.580;8.818;2024-03-08T14:51:39;98299.06;;;25.16;24.97
10921;BME280;5513;50.580;8.818;2024-03-08T14:54:26;98299.88;;;24.04;25.20
10921;BME280;5513;50.580;8.818;2024-03-08T14:57:13;98306.25;;;23.76;25.91
10921;BME280;5513;50.580;8.818;2024-03-08T15:00:01;98298.47;;;24.67;25.28
10921;BME280;5513;50.580;8.818;2024-03-08T15:02:52;98285.22;;;25.37;24.35
10921;BME280;5513;50.580;8.818;2024-03-08T15:05:39;98284.69;;;24.29;25.20